createdAt,value
2018-02-25T17:31:57.754Z,7.37
2018-02-25T17:36:01.062Z,34.13
2018-02-25T17:40:04.386Z,45.10
2018-02-25T17:44:07.742Z,9.77
2018-02-25T17:48:11.046Z,21.33
2018-02-25T17:52:14.367Z,9.07
2018-02-25T17:56:17.694Z,15.13
2018-02-25T18:00:21.017Z,11.27
2018-02-25T18:04:25.106Z,13.57
2018-02-25T18:08:28.406Z,13.77
2018-02-25T18:12:31.753Z,10.93
2018-02-25T18:16:35.825Z,18.20
2018-02-25T18:20:39.163Z,21.13
2018-02-25T18:24:43.238Z,12.60
2018-02-25T18:28:46.575Z,13.77
2018-02-25T18:32:49.882Z,18.73
2018-02-25T18:36:53.207Z,20.10
2018-02-25T18:40:56.553Z,29.00
2018-02-25T18:44:59.874Z,24.97
2018-02-25T18:49:03.199Z,55.23
2018-02-25T18:53:07.308Z,48.30
2018-02-25T18:57:10.626Z,45.00
2018-02-25T19:01:14.728Z,39.97
2018-02-25T19:05:18.038Z,5.90
2018-02-25T19:09:21.351Z,8.43
2018-02-25T19:13:25.449Z,4.90
2018-02-25T19:17:28.766Z,7.17
2018-02-25T19:21:32.082Z,6.70
2018-02-25T19:25:36.187Z,13.60
2018-02-25T19:29:39.590Z,16.70
2018-02-25T19:33:42.919Z,12.67
2018-02-25T19:37:52.563Z,17.20
2018-02-25T19:41:56.657Z,11.73
2018-02-25T19:45:59.974Z,5.07
2018-02-25T19:50:03.285Z,11.13
2018-02-25T19:54:07.382Z,8.70
2018-02-25T19:58:10.703Z,6.53
2018-02-25T20:02:14.082Z,11.57
2018-02-25T20:06:17.355Z,13.30
2018-02-25T20:10:20.670Z,3.77
2018-02-25T20:14:24.002Z,3.50
2018-02-25T20:18:27.299Z,2.97
2018-02-25T20:22:30.614Z,8.10
2018-02-25T20:26:33.954Z,3.93
2018-02-25T20:30:37.250Z,5.20
2018-02-25T20:34:40.566Z,4.30
2018-02-25T20:38:43.890Z,6.17
2018-02-25T20:42:47.210Z,5.10
2018-02-25T20:46:50.532Z,8.87
2018-02-25T20:50:53.834Z,6.20
2018-02-25T20:54:57.171Z,8.57
2018-02-25T20:59:00.472Z,5.23
2018-02-25T21:03:03.798Z,5.70
2018-02-25T21:07:07.098Z,10.50
2018-02-25T21:11:10.410Z,8.97
2018-02-25T21:15:13.738Z,5.43
2018-02-25T21:19:17.039Z,6.03
2018-02-25T21:23:20.354Z,4.60
2018-02-25T21:27:23.697Z,5.33
2018-02-25T21:31:27.010Z,6.57
2018-02-25T21:35:30.311Z,6.20
2018-02-25T21:39:33.622Z,4.13
2018-02-25T21:43:36.943Z,4.23
2018-02-25T21:47:40.258Z,7.20
2018-02-25T21:51:43.574Z,6.13
2018-02-25T21:55:52.420Z,5.20
2018-02-25T22:00:01.869Z,3.90
2018-02-25T22:04:05.955Z,2.83
2018-02-25T22:08:09.271Z,3.47
2018-02-25T22:12:12.567Z,3.20
2018-02-25T22:16:15.890Z,2.83
2018-02-25T22:20:19.977Z,7.03
2018-02-25T22:24:23.296Z,4.80
2018-02-25T22:28:26.610Z,2.93
2018-02-25T22:32:29.907Z,2.00
2018-02-25T22:36:33.219Z,4.63
2018-02-25T22:40:37.307Z,2.70
2018-02-25T22:44:40.644Z,2.97
2018-02-25T22:48:44.709Z,4.70
2018-02-25T22:52:48.034Z,4.53
2018-02-25T22:56:51.351Z,4.97
2018-02-25T23:00:54.655Z,6.17
2018-02-25T23:04:57.974Z,7.20
2018-02-25T23:09:02.058Z,3.53
2018-02-25T23:13:05.394Z,3.33
2018-02-25T23:17:08.690Z,2.67
2018-02-25T23:21:12.017Z,1.90
2018-02-25T23:25:15.350Z,2.70
2018-02-25T23:29:18.645Z,2.73
2018-02-25T23:33:21.979Z,4.13
2018-02-25T23:37:25.275Z,4.80
2018-02-25T23:41:28.597Z,2.60
2018-02-25T23:45:31.926Z,3.90
2018-02-25T23:49:35.992Z,2.03
2018-02-25T23:53:39.315Z,4.03
2018-02-25T23:57:42.638Z,2.57
